Terminal Aerodrome Forecast
Issued by NWS

Home | Current Version | Previous Version | Text Only | Print | Product List | Glossary On
Versions: 1 2 3 4 5 6 7 8 9 10
861
FTUS44 KLIX 071720
TAFMCB
TAF
KMCB 071720Z 0718/0818 01006KT P6SM SKC
     FM072000 24004KT P6SM SKC
     FM081300 29009KT P6SM FEW250
     FM081500 31013G20KT P6SM FEW250=

USA.gov is the U.S. government's official web portal to all federal, state and local government web resources and services.